createdAt,value
2017-04-22T00:00:48.122Z,17.28
2017-04-22T00:01:46.532Z,24.35
2017-04-22T00:02:44.785Z,17.10
2017-04-22T00:03:43.096Z,13.67
2017-04-22T00:04:41.523Z,20.40
2017-04-22T00:05:39.823Z,19.73
2017-04-22T00:06:38.206Z,16.58
2017-04-22T00:07:36.598Z,20.50
2017-04-22T00:08:35.670Z,17.23
2017-04-22T00:09:33.978Z,12.75
2017-04-22T00:10:32.420Z,20.50
2017-04-22T00:11:31.543Z,15.55
2017-04-22T00:12:29.953Z,15.92
2017-04-22T00:13:28.270Z,15.30
2017-04-22T00:14:26.782Z,13.43
2017-04-22T00:15:25.050Z,15.78
2017-04-22T00:16:23.517Z,14.22
2017-04-22T00:17:21.857Z,14.45
2017-04-22T00:18:20.825Z,21.23
2017-04-22T00:19:19.184Z,12.57
2017-04-22T00:20:18.949Z,13.52
2017-04-22T00:21:17.315Z,13.10
2017-04-22T00:22:15.763Z,14.65
2017-04-22T00:23:15.031Z,21.70
2017-04-22T00:24:13.320Z,17.98
2017-04-22T00:25:11.627Z,24.85
2017-04-22T00:26:10.582Z,13.92
2017-04-22T00:27:08.874Z,15.07
2017-04-22T00:28:07.143Z,15.55
2017-04-22T00:29:05.440Z,16.05
2017-04-22T00:30:04.257Z,18.75
2017-04-22T00:31:02.596Z,16.82
2017-04-22T00:32:00.903Z,14.82
2017-04-22T00:32:59.213Z,15.98
2017-04-22T00:33:58.218Z,16.18
2017-04-22T00:34:56.522Z,19.20
2017-04-22T00:35:55.458Z,14.10
2017-04-22T00:36:53.770Z,14.37
2017-04-22T00:37:52.288Z,16.45
2017-04-22T00:38:50.582Z,16.05
2017-04-22T00:39:48.897Z,15.63
2017-04-22T00:40:47.240Z,15.03
2017-04-22T00:41:45.877Z,14.73
2017-04-22T00:42:44.265Z,18.37
2017-04-22T00:43:42.559Z,18.85
2017-04-22T00:44:40.929Z,14.73
2017-04-22T00:45:39.224Z,10.80
2017-04-22T00:46:37.438Z,18.73
2017-04-22T00:47:35.702Z,16.37
2017-04-22T00:48:34.967Z,15.10
2017-04-22T00:49:33.268Z,16.87
2017-04-22T00:50:32.142Z,17.47
2017-04-22T00:51:30.456Z,17.60
2017-04-22T00:52:28.761Z,16.02
2017-04-22T00:53:27.032Z,18.87
2017-04-22T00:54:25.843Z,21.18
2017-04-22T00:55:24.131Z,15.68
2017-04-22T00:56:23.021Z,14.05
2017-04-22T00:57:21.344Z,20.73
2017-04-22T00:58:19.620Z,17.42
2017-04-22T00:59:18.482Z,21.95
2017-04-22T01:00:16.811Z,22.48
2017-04-22T01:01:15.883Z,17.75
2017-04-22T01:02:16.291Z,14.17
2017-04-22T01:03:14.603Z,16.87
2017-04-22T01:04:12.974Z,21.68
2017-04-22T01:05:11.852Z,18.28
2017-04-22T01:06:10.143Z,19.77
2017-04-22T01:07:08.571Z,20.23
2017-04-22T01:08:07.783Z,17.90
2017-04-22T01:09:06.248Z,16.42
2017-04-22T01:10:04.697Z,15.53
2017-04-22T01:11:04.529Z,15.82
2017-04-22T01:12:02.608Z,15.38
2017-04-22T01:13:00.921Z,23.08
2017-04-22T01:13:59.320Z,17.13
2017-04-22T01:14:58.396Z,13.90
2017-04-22T01:15:57.615Z,16.32
2017-04-22T01:16:56.845Z,16.07
2017-04-22T01:17:55.273Z,15.82
2017-04-22T01:18:53.555Z,18.25
2017-04-22T01:19:51.864Z,16.68
2017-04-22T01:20:50.463Z,20.87
2017-04-22T01:21:48.947Z,17.60
2017-04-22T01:22:47.270Z,18.38
2017-04-22T01:23:46.204Z,17.70
2017-04-22T01:24:44.436Z,18.42
2017-04-22T01:25:43.443Z,16.18
2017-04-22T01:26:42.314Z,15.97
2017-04-22T01:27:41.090Z,17.35
2017-04-22T01:28:39.414Z,18.50
2017-04-22T01:29:38.267Z,18.97
2017-04-22T01:30:36.677Z,21.08
2017-04-22T01:31:35.043Z,13.85
2017-04-22T01:32:33.287Z,19.37
2017-04-22T01:33:31.532Z,15.17
2017-04-22T01:34:29.757Z,16.25
2017-04-22T01:35:28.927Z,16.35
2017-04-22T01:36:27.355Z,18.05
2017-04-22T01:37:25.715Z,18.27
2017-04-22T01:38:24.031Z,17.50
2017-04-22T01:39:22.331Z,13.58
2017-04-22T01:40:20.599Z,18.40
2017-04-22T01:41:18.853Z,15.88
2017-04-22T01:42:17.958Z,17.07
2017-04-22T01:43:16.261Z,17.27
2017-04-22T01:44:14.501Z,15.58
2017-04-22T01:45:13.449Z,18.98
2017-04-22T01:46:12.427Z,18.35
2017-04-22T01:47:11.416Z,15.40
2017-04-22T01:48:10.541Z,18.23
2017-04-22T01:49:09.558Z,22.50
2017-04-22T01:50:07.812Z,19.52
2017-04-22T01:51:06.035Z,19.42
2017-04-22T01:52:05.022Z,15.93
2017-04-22T01:53:03.843Z,17.48
2017-04-22T01:54:02.258Z,14.30
2017-04-22T01:55:01.311Z,15.68
2017-04-22T01:56:00.697Z,13.57
2017-04-22T01:56:59.002Z,13.58
2017-04-22T01:57:57.987Z,16.88
2017-04-22T01:58:57.145Z,16.33
2017-04-22T01:59:56.093Z,13.42
2017-04-22T02:00:54.435Z,14.60
2017-04-22T02:01:52.879Z,14.48
2017-04-22T02:02:51.121Z,18.93
2017-04-22T02:03:49.414Z,16.98
2017-04-22T02:04:50.018Z,24.35
2017-04-22T02:05:48.355Z,16.52
2017-04-22T02:06:48.301Z,19.60
2017-04-22T02:07:46.657Z,13.92
2017-04-22T02:08:44.979Z,21.82
2017-04-22T02:09:43.315Z,13.27
2017-04-22T02:10:42.342Z,14.85
2017-04-22T02:11:40.740Z,15.02
2017-04-22T02:12:39.043Z,16.35
2017-04-22T02:13:38.074Z,15.87
2017-04-22T02:14:36.397Z,15.53
2017-04-22T02:15:35.429Z,14.68
2017-04-22T02:16:33.766Z,17.00
2017-04-22T02:17:32.107Z,18.18
2017-04-22T02:18:31.278Z,13.78
2017-04-22T02:19:29.507Z,13.83
2017-04-22T02:20:27.919Z,12.98
2017-04-22T02:21:27.023Z,15.52
2017-04-22T02:22:25.884Z,15.27
2017-04-22T02:23:24.230Z,12.57
2017-04-22T02:24:22.586Z,11.93
2017-04-22T02:25:20.954Z,17.37
2017-04-22T02:26:19.314Z,16.22
2017-04-22T02:27:17.630Z,16.62
2017-04-22T02:28:15.955Z,17.85
2017-04-22T02:29:14.215Z,18.25
2017-04-22T02:30:12.606Z,12.97
2017-04-22T02:31:10.872Z,18.47
2017-04-22T02:32:09.163Z,17.08
2017-04-22T02:33:07.560Z,14.67
2017-04-22T02:34:06.530Z,13.83
2017-04-22T02:35:05.555Z,15.15
2017-04-22T02:36:03.965Z,16.08
2017-04-22T02:37:02.280Z,17.22
2017-04-22T02:38:00.537Z,15.37
2017-04-22T02:38:59.843Z,17.82
2017-04-22T02:39:58.132Z,17.58
2017-04-22T02:40:57.630Z,16.38
2017-04-22T02:41:56.307Z,16.80
2017-04-22T02:42:54.541Z,16.05
2017-04-22T02:43:52.840Z,14.80
2017-04-22T02:44:51.186Z,18.50
2017-04-22T02:45:49.489Z,17.00
2017-04-22T02:46:48.718Z,14.55
2017-04-22T02:47:46.628Z,17.23
2017-04-22T02:48:44.914Z,17.12
2017-04-22T02:49:43.485Z,16.73
2017-04-22T02:50:41.951Z,16.48
2017-04-22T02:51:40.215Z,15.75
2017-04-22T02:52:38.573Z,16.33
2017-04-22T02:53:37.421Z,15.90
2017-04-22T02:54:35.698Z,13.48
2017-04-22T02:55:33.942Z,17.55
2017-04-22T02:56:32.241Z,15.27
2017-04-22T02:57:30.513Z,14.92
2017-04-22T02:58:28.892Z,19.68
2017-04-22T02:59:27.319Z,15.98
2017-04-22T03:00:26.135Z,18.03
2017-04-22T03:01:24.588Z,17.10
2017-04-22T03:02:23.443Z,19.00
2017-04-22T03:03:21.718Z,23.57
2017-04-22T03:04:20.012Z,16.50
2017-04-22T03:05:18.328Z,14.93
2017-04-22T03:06:18.051Z,19.30
2017-04-22T03:07:16.330Z,18.17
2017-04-22T03:08:14.577Z,20.65
2017-04-22T03:09:12.856Z,15.83
2017-04-22T03:10:11.219Z,17.68
2017-04-22T03:11:09.903Z,20.83
2017-04-22T03:12:08.304Z,19.78
2017-04-22T03:13:06.821Z,20.23
2017-04-22T03:14:05.511Z,20.52
2017-04-22T03:15:03.948Z,19.08
2017-04-22T03:16:03.274Z,20.35
2017-04-22T03:17:01.701Z,22.12
2017-04-22T03:17:59.945Z,19.00
2017-04-22T03:18:58.183Z,20.33
2017-04-22T03:19:56.454Z,18.10
2017-04-22T03:20:54.722Z,20.55
2017-04-22T03:21:53.081Z,23.07
2017-04-22T03:22:52.027Z,23.25
2017-04-22T03:23:51.039Z,19.67
2017-04-22T03:24:49.360Z,20.07
2017-04-22T03:25:47.720Z,20.70
2017-04-22T03:26:46.714Z,20.07
2017-04-22T03:27:44.971Z,20.37
2017-04-22T03:28:43.247Z,23.55
2017-04-22T03:29:42.067Z,21.22
2017-04-22T03:30:40.771Z,24.62
2017-04-22T03:31:39.196Z,19.88
2017-04-22T03:32:38.239Z,23.82
2017-04-22T03:33:36.503Z,20.45
2017-04-22T03:34:34.864Z,17.97
2017-04-22T03:35:33.127Z,19.62
2017-04-22T03:36:31.386Z,22.12
2017-04-22T03:37:30.286Z,22.33
2017-04-22T03:38:29.511Z,18.98
2017-04-22T03:39:28.708Z,20.70
2017-04-22T03:40:27.748Z,25.85
2017-04-22T03:41:26.171Z,23.18
2017-04-22T03:42:24.570Z,23.33
2017-04-22T03:43:22.814Z,22.70
2017-04-22T03:44:21.050Z,21.38
2017-04-22T03:45:19.307Z,24.70
2017-04-22T03:46:17.570Z,18.95
2017-04-22T03:47:15.812Z,24.25
2017-04-22T03:48:14.050Z,21.88
2017-04-22T03:49:12.309Z,21.03
2017-04-22T03:50:10.614Z,28.42
2017-04-22T03:51:08.962Z,18.70
2017-04-22T03:52:07.327Z,25.40
2017-04-22T03:53:05.785Z,24.73
2017-04-22T03:54:04.133Z,26.40
2017-04-22T03:55:03.291Z,21.78
2017-04-22T03:56:01.529Z,23.65
2017-04-22T03:56:59.918Z,24.12
2017-04-22T03:57:58.773Z,23.02
2017-04-22T03:58:57.032Z,28.03
2017-04-22T03:59:55.511Z,23.88
2017-04-22T04:00:53.852Z,26.93
2017-04-22T04:01:52.858Z,18.58
2017-04-22T04:02:51.122Z,25.32
2017-04-22T04:03:50.015Z,21.00
2017-04-22T04:04:48.878Z,22.77
2017-04-22T04:05:47.333Z,22.92
2017-04-22T04:06:45.613Z,21.62
2017-04-22T04:07:44.017Z,21.65
2017-04-22T04:08:42.287Z,18.17
2017-04-22T04:09:41.295Z,30.02
2017-04-22T04:10:39.649Z,22.40
2017-04-22T04:11:37.858Z,20.15
2017-04-22T04:12:36.135Z,23.27
2017-04-22T04:13:34.403Z,19.67
2017-04-22T04:14:32.720Z,19.98
2017-04-22T04:15:31.054Z,20.63
2017-04-22T04:16:29.579Z,23.02
2017-04-22T04:17:28.631Z,31.75
2017-04-22T04:18:26.936Z,23.97
2017-04-22T04:19:25.950Z,19.47
2017-04-22T04:20:24.359Z,23.17
2017-04-22T04:21:22.631Z,21.58
2017-04-22T04:22:21.108Z,26.12
2017-04-22T04:23:19.413Z,19.93
2017-04-22T04:24:17.723Z,29.50
2017-04-22T04:25:16.651Z,27.25
2017-04-22T04:26:15.957Z,23.35
2017-04-22T04:27:14.341Z,21.70
2017-04-22T04:28:13.326Z,23.42
2017-04-22T04:29:12.268Z,22.98
2017-04-22T04:30:11.275Z,25.23
2017-04-22T04:31:09.511Z,22.42
2017-04-22T04:32:08.519Z,24.47
2017-04-22T04:33:06.855Z,23.88
2017-04-22T04:34:05.156Z,25.42
2017-04-22T04:35:04.100Z,20.30
2017-04-22T04:36:02.922Z,21.65
2017-04-22T04:37:01.176Z,21.28
2017-04-22T04:37:59.454Z,18.63
2017-04-22T04:38:58.366Z,25.78
2017-04-22T04:39:56.616Z,19.60
2017-04-22T04:40:54.923Z,23.08
2017-04-22T04:41:53.178Z,21.05
2017-04-22T04:42:51.402Z,22.92
2017-04-22T04:43:50.391Z,16.88
2017-04-22T04:44:48.680Z,22.27
2017-04-22T04:45:46.959Z,19.60
2017-04-22T04:46:45.232Z,20.23
2017-04-22T04:47:43.525Z,23.08
2017-04-22T04:48:42.601Z,22.30
2017-04-22T04:49:41.006Z,22.67
2017-04-22T04:50:39.310Z,19.38
2017-04-22T04:51:38.988Z,21.28
2017-04-22T04:52:37.234Z,22.13
2017-04-22T04:53:36.737Z,22.18
2017-04-22T04:54:35.911Z,26.15
2017-04-22T04:55:34.170Z,22.12
2017-04-22T04:56:33.207Z,22.60
2017-04-22T04:57:31.503Z,21.98
2017-04-22T04:58:30.518Z,21.32
2017-04-22T04:59:29.312Z,21.07
2017-04-22T05:00:27.583Z,24.27
2017-04-22T05:01:25.913Z,23.70
2017-04-22T05:02:25.034Z,21.93
2017-04-22T05:03:23.392Z,22.18
2017-04-22T05:04:21.725Z,23.50
2017-04-22T05:05:20.880Z,25.75
2017-04-22T05:06:19.362Z,23.25
2017-04-22T05:07:17.631Z,28.35
2017-04-22T05:08:15.884Z,22.52
2017-04-22T05:09:14.282Z,19.80
2017-04-22T05:10:12.670Z,20.72
2017-04-22T05:11:12.167Z,23.72
2017-04-22T05:12:11.170Z,20.00
2017-04-22T05:13:09.405Z,20.52
2017-04-22T05:23:58.396Z,21.37
2017-04-22T05:24:56.662Z,21.13
2017-04-22T05:25:54.961Z,21.53
2017-04-22T05:26:56.137Z,22.08
2017-04-22T05:27:54.959Z,21.70
2017-04-22T05:28:53.002Z,23.77
2017-04-22T05:29:51.269Z,26.95
2017-04-22T05:30:49.924Z,22.62
2017-04-22T05:31:48.212Z,24.87
2017-04-22T05:32:46.587Z,26.12
2017-04-22T05:33:45.072Z,23.52
2017-04-22T05:34:44.117Z,22.08
2017-04-22T05:35:42.457Z,18.27
2017-04-22T05:36:41.052Z,21.38
2017-04-22T05:37:39.465Z,23.80
2017-04-22T05:38:38.547Z,24.05
2017-04-22T05:39:36.830Z,20.33
2017-04-22T05:40:36.742Z,22.63
2017-04-22T05:41:35.813Z,24.92
2017-04-22T05:42:34.441Z,25.62
2017-04-22T05:43:32.966Z,23.32
2017-04-22T05:44:32.510Z,24.17
2017-04-22T05:45:30.862Z,23.23
2017-04-22T05:46:30.610Z,26.17
2017-04-22T05:47:32.040Z,21.03
2017-04-22T05:48:32.231Z,19.23
2017-04-22T05:49:31.009Z,22.07
2017-04-22T05:50:29.644Z,17.60
2017-04-22T05:51:28.054Z,21.50
2017-04-22T05:52:26.332Z,26.37
2017-04-22T05:53:24.939Z,22.85
2017-04-22T05:54:24.652Z,23.18
2017-04-22T05:55:23.691Z,25.13
2017-04-22T05:56:24.852Z,18.08
2017-04-22T05:57:24.194Z,24.50
2017-04-22T05:58:23.507Z,27.25
2017-04-22T05:59:22.305Z,21.22
2017-04-22T06:00:21.632Z,26.42
2017-04-22T06:01:23.334Z,20.65
2017-04-22T06:02:22.958Z,21.75
2017-04-22T06:03:22.021Z,26.53
2017-04-22T06:04:21.175Z,22.47
2017-04-22T06:05:19.596Z,21.87
2017-04-22T06:06:17.948Z,22.20
2017-04-22T06:07:16.223Z,21.55
2017-04-22T06:08:14.493Z,21.00
2017-04-22T06:09:14.180Z,21.75
2017-04-22T06:10:13.118Z,25.82
2017-04-22T06:11:12.027Z,21.37
2017-04-22T06:12:10.311Z,23.33
2017-04-22T06:13:08.675Z,21.90
2017-04-22T06:14:08.070Z,24.17
2017-04-22T06:15:07.626Z,23.15
2017-04-22T06:16:07.490Z,26.38
2017-04-22T06:17:07.353Z,27.72
2017-04-22T06:18:05.648Z,21.03
2017-04-22T06:19:04.453Z,25.00
2017-04-22T06:20:03.623Z,23.90
2017-04-22T06:21:03.673Z,23.20
2017-04-22T06:22:01.985Z,21.05
2017-04-22T06:23:00.246Z,17.98
2017-04-22T06:23:59.845Z,21.92
2017-04-22T06:24:58.900Z,22.58
2017-04-22T06:25:57.203Z,19.18
2017-04-22T06:26:55.677Z,19.65
2017-04-22T06:27:53.926Z,26.60
2017-04-22T06:28:52.174Z,22.03
2017-04-22T06:29:50.479Z,20.65
2017-04-22T06:30:48.710Z,25.07
2017-04-22T06:31:47.478Z,21.00
2017-04-22T06:32:45.993Z,19.98
2017-04-22T06:33:45.020Z,20.42
2017-04-22T06:34:43.650Z,20.03
2017-04-22T06:35:41.910Z,21.72
2017-04-22T06:36:40.210Z,21.25
2017-04-22T06:37:39.367Z,23.20
2017-04-22T06:38:37.629Z,20.48
2017-04-22T06:39:35.878Z,20.60
2017-04-22T06:40:34.482Z,23.32
2017-04-22T06:41:36.218Z,21.03
2017-04-22T06:42:38.536Z,24.50
2017-04-22T06:43:38.572Z,21.57
2017-04-22T06:44:39.382Z,25.15
2017-04-22T06:45:39.352Z,23.30
2017-04-22T06:46:37.632Z,20.35
2017-04-22T06:47:35.872Z,21.98
2017-04-22T06:48:34.302Z,28.53
2017-04-22T06:49:32.921Z,24.52
2017-04-22T06:50:31.260Z,21.32
2017-04-22T06:51:30.954Z,26.32
2017-04-22T06:52:29.242Z,23.17
2017-04-22T06:53:27.878Z,20.53
2017-04-22T06:54:26.179Z,26.32
2017-04-22T06:55:30.633Z,22.42
2017-04-22T06:56:35.488Z,20.28
2017-04-22T06:57:35.923Z,21.57
2017-04-22T06:58:34.708Z,22.73
2017-04-22T06:59:36.270Z,20.32
2017-04-22T07:00:36.344Z,23.80
2017-04-22T07:01:35.067Z,22.87
2017-04-22T07:02:42.109Z,25.38
2017-04-22T07:03:40.965Z,23.67
2017-04-22T07:04:41.938Z,24.80
2017-04-22T07:05:42.192Z,28.53
2017-04-22T07:06:41.087Z,30.02
2017-04-22T07:07:43.685Z,21.95
2017-04-22T07:08:43.349Z,23.57
2017-04-22T07:09:42.596Z,21.63
2017-04-22T07:10:42.561Z,28.02
2017-04-22T07:11:42.291Z,21.88
2017-04-22T07:12:43.879Z,26.53
2017-04-22T07:13:43.828Z,24.90
2017-04-22T07:14:44.153Z,23.65
2017-04-22T07:15:43.969Z,22.77
2017-04-22T07:16:44.121Z,24.43
2017-04-22T07:17:42.916Z,24.93
2017-04-22T07:18:46.877Z,23.85
2017-04-22T07:19:46.723Z,22.95
2017-04-22T07:20:48.427Z,21.80
2017-04-22T07:21:48.252Z,24.05
2017-04-22T07:22:53.430Z,31.38
2017-04-22T07:23:53.224Z,29.38
2017-04-22T07:24:55.901Z,29.13
2017-04-22T07:25:56.001Z,25.73
2017-04-22T07:26:58.292Z,25.32
2017-04-22T07:27:58.133Z,25.42
2017-04-22T07:28:59.547Z,22.90
2017-04-22T07:29:58.179Z,24.18
2017-04-22T07:30:58.416Z,26.80
2017-04-22T07:31:57.469Z,26.67
2017-04-22T07:32:55.975Z,22.58
2017-04-22T07:34:02.845Z,24.67
2017-04-22T07:35:08.332Z,25.58
2017-04-22T07:36:12.663Z,24.72
2017-04-22T07:37:13.525Z,28.50
2017-04-22T07:38:16.856Z,25.22
2017-04-22T07:39:20.121Z,24.43
2017-04-22T07:40:22.165Z,27.42
2017-04-22T07:41:21.699Z,27.30
2017-04-22T07:42:19.993Z,29.55
2017-04-22T07:43:19.042Z,26.90
2017-04-22T07:44:17.606Z,25.33
2017-04-22T07:45:15.903Z,29.92
2017-04-22T07:46:14.827Z,25.80
2017-04-22T07:47:13.229Z,30.55
2017-04-22T07:48:11.684Z,25.58
2017-04-22T07:49:10.103Z,26.43
2017-04-22T07:50:09.800Z,29.10
2017-04-22T07:51:08.301Z,27.20
2017-04-22T07:52:06.826Z,22.88
2017-04-22T07:53:05.418Z,24.85
2017-04-22T07:54:03.806Z,23.78
2017-04-22T07:55:04.095Z,29.38
2017-04-22T07:56:02.426Z,28.97
2017-04-22T07:57:00.852Z,28.28
2017-04-22T07:57:59.918Z,23.70
2017-04-22T07:58:59.010Z,28.28
2017-04-22T07:59:57.388Z,27.63
2017-04-22T08:00:56.666Z,25.20
2017-04-22T08:01:55.357Z,33.02
2017-04-22T08:02:54.408Z,27.47
2017-04-22T08:03:54.984Z,31.30
2017-04-22T08:04:53.252Z,26.30
2017-04-22T08:05:51.801Z,28.20
2017-04-22T08:06:50.855Z,24.65
2017-04-22T08:07:51.163Z,28.67
2017-04-22T08:08:50.355Z,27.92
2017-04-22T08:09:51.204Z,25.20
2017-04-22T08:10:52.789Z,24.00
2017-04-22T08:11:53.326Z,25.10
2017-04-22T08:12:53.016Z,27.33
2017-04-22T08:13:52.176Z,23.88
2017-04-22T08:14:51.551Z,26.60
2017-04-22T08:15:50.600Z,27.10
2017-04-22T08:16:48.978Z,22.40
2017-04-22T08:17:47.323Z,24.62
2017-04-22T08:18:46.800Z,28.78
2017-04-22T08:19:46.181Z,29.18
2017-04-22T08:20:46.468Z,24.90
2017-04-22T08:21:46.714Z,28.62
2017-04-22T08:22:46.126Z,25.03
2017-04-22T08:23:49.168Z,23.73
2017-04-22T08:24:48.786Z,22.65
2017-04-22T08:38:46.599Z,20.27
2017-04-22T08:39:45.427Z,5.47
2017-04-22T08:40:44.373Z,5.72
2017-04-22T08:41:44.144Z,5.92
2017-04-22T08:42:42.514Z,4.15
2017-04-22T08:43:40.812Z,4.22
2017-04-22T08:44:39.816Z,3.77
2017-04-22T08:45:38.146Z,6.42
2017-04-22T08:46:36.654Z,2.90
2017-04-22T08:47:34.951Z,5.82
2017-04-22T08:48:33.233Z,2.53
2017-04-22T08:49:31.585Z,2.12
2017-04-22T08:50:29.872Z,3.35
2017-04-22T08:51:28.499Z,1.83
2017-04-22T08:52:28.270Z,1.72
2017-04-22T08:53:27.806Z,4.42
2017-04-22T08:54:28.513Z,3.03
2017-04-22T08:55:30.690Z,2.68
2017-04-22T08:56:31.542Z,4.17
2017-04-22T08:57:31.646Z,1.82
2017-04-22T08:58:30.895Z,2.60
2017-04-22T08:59:29.167Z,1.95
2017-04-22T09:00:27.576Z,1.28
2017-04-22T09:01:25.943Z,2.92
2017-04-22T09:02:24.306Z,2.30
2017-04-22T09:03:22.568Z,2.62
2017-04-22T09:04:20.909Z,5.65
2017-04-22T09:05:19.190Z,1.38
2017-04-22T09:06:17.543Z,2.57
2017-04-22T09:07:15.865Z,2.95
2017-04-22T09:08:14.276Z,1.43
2017-04-22T09:09:12.549Z,1.07
2017-04-22T09:10:10.867Z,1.70
2017-04-22T09:11:09.228Z,2.07
2017-04-22T09:12:07.591Z,0.93
2017-04-22T09:13:05.904Z,2.88
2017-04-22T09:14:04.939Z,2.87
2017-04-22T09:15:04.042Z,2.63
2017-04-22T09:16:02.387Z,1.93
2017-04-22T09:17:00.773Z,0.85
2017-04-22T09:17:59.018Z,1.63
2017-04-22T09:18:57.340Z,3.98
2017-04-22T09:19:55.608Z,1.72
2017-04-22T09:20:54.700Z,3.40
2017-04-22T09:21:53.045Z,5.18
2017-04-22T09:22:51.475Z,1.72
2017-04-22T09:23:51.068Z,2.82
2017-04-22T09:24:49.437Z,3.77
2017-04-22T09:25:47.916Z,2.52
2017-04-22T09:26:47.222Z,1.75
2017-04-22T09:27:45.592Z,3.57
2017-04-22T09:28:43.934Z,3.73
2017-04-22T09:29:42.302Z,2.30
2017-04-22T09:30:40.620Z,3.13
2017-04-22T09:31:38.998Z,6.18
2017-04-22T09:32:37.783Z,1.73
2017-04-22T09:33:37.174Z,1.55
2017-04-22T09:34:36.211Z,2.23
2017-04-22T09:35:34.554Z,3.62
2017-04-22T09:36:32.816Z,1.60
2017-04-22T09:37:31.120Z,1.23
2017-04-22T09:38:29.378Z,1.87
2017-04-22T09:39:28.462Z,1.82
2017-04-22T09:40:26.860Z,2.85
2017-04-22T09:41:25.138Z,2.83
2017-04-22T09:42:24.205Z,1.27
2017-04-22T09:43:22.636Z,1.32
2017-04-22T09:44:20.919Z,2.53
2017-04-22T09:45:19.894Z,2.12
2017-04-22T09:46:18.248Z,4.02
2017-04-22T09:47:16.564Z,1.55
2017-04-22T09:48:14.841Z,3.82
2017-04-22T09:49:14.514Z,2.42
2017-04-22T09:50:12.806Z,1.42
2017-04-22T09:51:11.149Z,1.53
2017-04-22T09:52:09.498Z,2.07
2017-04-22T09:53:07.803Z,2.37
2017-04-22T09:54:06.500Z,3.92
2017-04-22T09:55:05.730Z,2.28
2017-04-22T09:56:04.516Z,1.82
2017-04-22T09:57:03.940Z,3.45
2017-04-22T09:58:02.295Z,1.33
2017-04-22T09:59:00.572Z,2.88
2017-04-22T10:00:00.214Z,2.82
2017-04-22T10:00:58.551Z,2.65
2017-04-22T10:01:57.248Z,2.57
2017-04-22T10:02:56.283Z,2.63
2017-04-22T10:03:54.580Z,3.77
2017-04-22T10:04:52.935Z,4.10
2017-04-22T10:05:51.203Z,3.22
2017-04-22T10:06:49.483Z,6.40
2017-04-22T10:07:48.761Z,5.70
2017-04-22T10:08:47.111Z,2.42
2017-04-22T10:09:45.441Z,1.70
2017-04-22T10:10:43.792Z,2.53
2017-04-22T10:11:42.889Z,3.42
2017-04-22T10:12:41.239Z,3.00
2017-04-22T10:13:40.312Z,7.50
2017-04-22T10:14:39.388Z,6.27
2017-04-22T10:15:37.782Z,8.85
2017-04-22T10:16:36.115Z,3.73
2017-04-22T10:17:35.031Z,4.65
2017-04-22T10:18:34.296Z,6.73
2017-04-22T10:19:32.687Z,4.08
2017-04-22T10:20:32.229Z,4.45
2017-04-22T10:21:31.741Z,5.83
2017-04-22T10:22:30.481Z,3.57
2017-04-22T10:23:28.793Z,7.42
2017-04-22T10:24:27.224Z,5.97
2017-04-22T10:25:25.546Z,3.45
2017-04-22T10:26:25.146Z,7.15
2017-04-22T10:27:25.096Z,4.57
2017-04-22T10:28:23.405Z,6.98
2017-04-22T10:29:21.762Z,3.43
2017-04-22T10:30:20.140Z,4.45
2017-04-22T10:31:18.408Z,7.55
2017-04-22T10:32:17.131Z,10.58
2017-04-22T10:33:16.303Z,4.18
2017-04-22T10:34:15.346Z,7.43
2017-04-22T10:35:13.714Z,5.42
2017-04-22T10:36:12.108Z,4.22
2017-04-22T10:37:12.257Z,2.62
2017-04-22T10:38:10.602Z,4.72
2017-04-22T10:39:09.875Z,4.03
2017-04-22T10:40:08.262Z,6.32
2017-04-22T10:41:07.302Z,4.73
2017-04-22T10:42:06.303Z,4.47
2017-04-22T10:43:04.849Z,23.53
2017-04-22T10:44:03.928Z,9.77
2017-04-22T10:45:03.099Z,5.65
2017-04-22T10:46:02.980Z,5.38
2017-04-22T10:47:02.677Z,3.27
2017-04-22T10:48:02.319Z,6.80
2017-04-22T10:58:45.716Z,4.34
2017-04-22T10:59:43.974Z,6.14
2017-04-22T11:00:42.243Z,5.83
2017-04-22T11:01:40.532Z,4.69
2017-04-22T11:02:39.640Z,4.94
2017-04-22T11:03:37.967Z,4.73
2017-04-22T11:04:36.927Z,3.96
2017-04-22T11:05:35.460Z,3.46
2017-04-22T11:06:34.728Z,4.20
2017-04-22T11:07:33.698Z,8.49
2017-04-22T11:08:33.022Z,4.63
2017-04-22T11:09:31.722Z,5.59
2017-04-22T11:10:30.903Z,4.64
2017-04-22T11:11:29.992Z,6.06
2017-04-22T11:12:29.095Z,4.17
2017-04-22T11:13:27.534Z,4.10
2017-04-22T11:14:26.370Z,4.49
2017-04-22T11:15:26.028Z,4.64
2017-04-22T11:16:25.256Z,5.61
2017-04-22T11:17:24.387Z,6.83
2017-04-22T11:18:23.853Z,4.54
2017-04-22T11:19:22.377Z,5.94
2017-04-22T11:20:20.843Z,5.97
2017-04-22T11:21:20.019Z,4.43
2017-04-22T11:22:19.081Z,4.06
2017-04-22T11:23:17.461Z,6.14
2017-04-22T11:24:16.754Z,6.10
2017-04-22T11:25:15.112Z,4.17
2017-04-22T11:26:13.848Z,5.07
2017-04-22T11:27:12.362Z,4.80
2017-04-22T11:28:10.759Z,5.86
2017-04-22T11:29:09.941Z,5.26
2017-04-22T11:30:09.005Z,6.13
2017-04-22T11:31:07.678Z,14.80
2017-04-22T11:32:06.949Z,4.40
2017-04-22T11:33:06.623Z,5.56
2017-04-22T11:34:06.584Z,4.77
2017-04-22T11:35:06.440Z,5.30
2017-04-22T11:36:04.994Z,6.74
2017-04-22T11:37:03.877Z,6.31
2017-04-22T11:38:02.371Z,4.11
2017-04-22T11:39:00.818Z,4.51
2017-04-22T11:39:59.104Z,5.96
2017-04-22T11:40:58.032Z,4.70
2017-04-22T11:41:56.370Z,4.97
2017-04-22T11:42:56.183Z,5.76
2017-04-22T11:43:54.715Z,7.61
2017-04-22T11:44:53.784Z,3.66
2017-04-22T11:45:55.034Z,6.70
2017-04-22T11:46:54.616Z,10.00
2017-04-22T11:47:55.024Z,6.97
2017-04-22T11:48:54.072Z,7.17
2017-04-22T11:49:52.370Z,6.50
2017-04-22T11:50:51.306Z,5.84
2017-04-22T11:51:49.660Z,5.90
2017-04-22T11:52:48.582Z,9.76
2017-04-22T11:53:46.923Z,6.77
2017-04-22T11:54:45.927Z,8.64
2017-04-22T11:55:44.372Z,5.34
2017-04-22T11:56:42.838Z,6.16
2017-04-22T11:57:41.195Z,5.46
2017-04-22T11:58:39.601Z,7.17
2017-04-22T11:59:38.007Z,7.26
2017-04-22T12:00:36.993Z,5.37
2017-04-22T12:01:36.150Z,8.13
2017-04-22T12:02:34.618Z,6.90
2017-04-22T12:03:34.006Z,7.81
2017-04-22T12:04:32.313Z,5.96
2017-04-22T12:05:31.404Z,9.49
2017-04-22T12:06:30.517Z,7.77
2017-04-22T12:07:28.779Z,7.27
2017-04-22T12:08:28.966Z,7.73
2017-04-22T12:09:28.006Z,5.97
2017-04-22T12:10:26.283Z,5.71
2017-04-22T12:11:25.216Z,7.51
2017-04-22T12:12:23.451Z,11.14
2017-04-22T12:13:22.089Z,7.11
2017-04-22T12:14:20.418Z,12.86
2017-04-22T12:15:18.995Z,7.56
2017-04-22T12:16:17.358Z,8.24
2017-04-22T12:17:16.670Z,8.31
2017-04-22T12:18:15.858Z,5.64
2017-04-22T12:19:14.209Z,11.30
2017-04-22T12:20:13.090Z,7.00
2017-04-22T12:21:11.552Z,11.23
2017-04-22T12:22:10.593Z,9.24
2017-04-22T12:23:08.923Z,13.23
2017-04-22T12:33:52.850Z,8.57
2017-04-22T12:34:51.216Z,7.66
2017-04-22T12:35:49.763Z,8.56
2017-04-22T12:36:48.862Z,7.83
2017-04-22T12:37:47.245Z,11.31
2017-04-22T12:38:45.675Z,14.53
2017-04-22T12:39:44.710Z,9.99
2017-04-22T12:40:43.002Z,10.43
2017-04-22T12:41:41.313Z,10.96
2017-04-22T12:42:41.334Z,9.60
2017-04-22T12:43:39.619Z,9.33
2017-04-22T12:44:37.890Z,13.64
2017-04-22T12:45:36.198Z,8.31
2017-04-22T12:46:35.502Z,8.37
2017-04-22T12:47:33.751Z,14.47
2017-04-22T12:48:32.829Z,8.49
2017-04-22T12:49:31.159Z,8.55
2017-04-22T12:50:31.448Z,11.90
2017-04-22T12:51:30.336Z,8.12
2017-04-22T12:52:29.321Z,10.18
2017-04-22T12:53:29.272Z,8.42
2017-04-22T12:54:27.723Z,10.00
2017-04-22T12:55:26.043Z,10.60
2017-04-22T12:56:24.295Z,14.90
2017-04-22T12:57:23.677Z,12.15
2017-04-22T12:58:22.739Z,14.32
2017-04-22T12:59:21.090Z,11.97
2017-04-22T13:00:19.331Z,9.40
2017-04-22T13:01:17.712Z,11.77
2017-04-22T13:02:16.041Z,9.52
2017-04-22T13:03:15.068Z,11.77
2017-04-22T13:04:13.382Z,8.84
2017-04-22T13:05:13.440Z,10.00
2017-04-22T13:06:12.286Z,11.90
2017-04-22T13:07:11.872Z,9.97
2017-04-22T13:08:10.961Z,10.09
2017-04-22T13:09:10.021Z,9.21
2017-04-22T13:10:09.247Z,8.09
2017-04-22T13:11:07.579Z,9.24
2017-04-22T13:12:05.837Z,8.70
2017-04-22T13:13:05.168Z,11.83
2017-04-22T13:14:04.332Z,8.14
2017-04-22T13:15:03.103Z,9.94
2017-04-22T13:16:01.643Z,7.31
2017-04-22T13:17:00.568Z,9.30
2017-04-22T13:17:59.126Z,7.86
2017-04-22T13:18:57.997Z,6.36
2017-04-22T13:19:56.353Z,11.79
2017-04-22T13:20:54.733Z,7.30
2017-04-22T13:21:53.078Z,8.07
2017-04-22T13:22:51.778Z,6.11
2017-04-22T13:23:51.075Z,8.57
2017-04-22T13:24:50.272Z,7.23
2017-04-22T13:25:49.186Z,5.63
2017-04-22T13:26:47.710Z,9.49
2017-04-22T13:27:46.140Z,8.69
2017-04-22T13:28:45.423Z,8.76